Time;durP1;ratioP1;P1;durP2;ratioP2;P2;SDS_P1;SDS_P2;PMS_P1;PMS_P2;Temp;Humidity;BMP_temperature;BMP_pressure;BME280_temperature;BME280_humidity;BME280_pressure;Samples;Min_cycle;Max_cycle;Signal;HPM_P1;HPM_P2
2023/03/11 00:01:02;;;;;;;;;;;21.20;30.80;;;;;;5093034;28;19920;-72
2023/03/11 00:03:28;;;;;;;;;;;21.20;30.80;;;;;;5092208;28;20355;-72
2023/03/11 00:05:54;;;;;;;;;;;21.20;30.80;;;;;;5091418;28;20022;-71
2023/03/11 00:08:22;;;;;;;;;;;21.20;30.80;;;;;;5093272;28;19927;-72
2023/03/11 00:10:50;;;;;;;;;;;21.20;30.80;;;;;;5092061;28;19924;-72
2023/03/11 00:13:19;;;;;;;;;;;21.20;30.80;;;;;;5091725;28;19920;-72
2023/03/11 00:15:47;;;;;;;;;;;21.20;30.80;;;;;;5092969;28;20018;-72
2023/03/11 00:18:12;;;;;;;;;;;21.20;30.80;;;;;;5091898;28;19920;-73
2023/03/11 00:20:39;;;;;;;;;;;21.20;30.80;;;;;;5091565;28;19920;-72
2023/03/11 00:23:05;;;;;;;;;;;21.20;30.80;;;;;;5093333;28;20287;-74
2023/03/11 00:25:32;;;;;;;;;;;21.20;31.60;;;;;;5092127;28;20287;-72
2023/03/11 00:27:58;;;;;;;;;;;21.10;30.80;;;;;;5091568;28;19924;-71
2023/03/11 00:30:24;;;;;;;;;;;21.10;30.90;;;;;;5091450;28;20398;-72
2023/03/11 00:32:50;;;;;;;;;;;21.20;31.00;;;;;;5091604;28;19924;-72
2023/03/11 00:35:18;;;;;;;;;;;21.10;30.90;;;;;;5091521;28;19924;-72
2023/03/11 00:37:45;;;;;;;;;;;21.10;30.90;;;;;;5091689;28;20010;-71
2023/03/11 00:40:12;;;;;;;;;;;21.10;30.90;;;;;;5125316;27;19927;-72
2023/03/11 00:42:38;;;;;;;;;;;21.50;31.10;;;;;;5091320;28;20379;-72
2023/03/11 00:45:04;;;;;;;;;;;21.10;30.90;;;;;;5125364;27;20007;-71
2023/03/11 00:47:29;;;;;;;;;;;21.20;30.90;;;;;;5091602;28;19920;-72
2023/03/11 00:49:55;;;;;;;;;;;21.20;30.80;;;;;;5125591;27;20309;-71
2023/03/11 00:52:20;;;;;;;;;;;21.20;30.80;;;;;;5090846;28;19920;-72
2023/03/11 00:54:46;;;;;;;;;;;21.20;30.80;;;;;;5093837;28;19920;-72
2023/03/11 00:57:11;;;;;;;;;;;21.30;30.80;;;;;;5094701;28;19958;-71
2023/03/11 00:59:37;;;;;;;;;;;21.30;30.70;;;;;;5094348;28;19923;-72
2023/03/11 01:02:02;;;;;;;;;;;21.30;30.60;;;;;;5094531;28;19920;-72
2023/03/11 01:04:28;;;;;;;;;;;21.40;30.60;;;;;;5112634;28;19927;-72
2023/03/11 01:06:53;;;;;;;;;;;21.40;30.60;;;;;;5094790;28;19927;-72
2023/03/11 01:09:19;;;;;;;;;;;21.40;30.60;;;;;;5094645;28;19920;-72
2023/03/11 01:11:44;;;;;;;;;;;21.40;30.50;;;;;;5094732;28;20375;-72
2023/03/11 01:14:10;;;;;;;;;;;21.30;30.60;;;;;;5094649;28;20383;-71
2023/03/11 01:16:36;;;;;;;;;;;21.40;30.60;;;;;;5095097;28;19930;-72
2023/03/11 01:19:01;;;;;;;;;;;21.40;30.60;;;;;;5098463;28;19919;-73
2023/03/11 01:21:27;;;;;;;;;;;21.30;30.50;;;;;;5116678;28;19930;-71
2023/03/11 01:23:52;;;;;;;;;;;21.30;30.50;;;;;;5098298;28;19970;-71
2023/03/11 01:26:18;;;;;;;;;;;21.30;30.60;;;;;;5116538;28;19929;-72
2023/03/11 01:28:43;;;;;;;;;;;21.30;30.50;;;;;;5116546;28;20282;-72
2023/03/11 01:31:09;;;;;;;;;;;21.30;30.50;;;;;;5098241;28;19950;-72
2023/03/11 01:33:35;;;;;;;;;;;21.30;30.50;;;;;;5116582;28;19920;-72
2023/03/11 01:36:00;;;;;;;;;;;21.30;30.60;;;;;;5098091;28;20313;-71
2023/03/11 01:38:26;;;;;;;;;;;21.20;30.50;;;;;;5116841;28;20308;-72
2023/03/11 01:40:52;;;;;;;;;;;21.20;30.50;;;;;;5098235;28;19919;-72
2023/03/11 01:43:38;;;;;;;;;;;21.20;30.40;;;;;;5098553;28;19926;-71
2023/03/11 01:46:08;;;;;;;;;;;21.20;30.50;;;;;;5097883;28;19923;-73
2023/03/11 01:48:33;;;;;;;;;;;21.20;30.50;;;;;;5097921;28;20383;-72
2023/03/11 01:50:59;;;;;;;;;;;21.20;30.50;;;;;;5098111;28;19971;-72
2023/03/11 01:53:25;;;;;;;;;;;21.20;30.50;;;;;;5097898;28;20306;-72
2023/03/11 01:55:51;;;;;;;;;;;21.20;30.50;;;;;;5097557;28;19924;-71
2023/03/11 01:58:18;;;;;;;;;;;21.20;30.50;;;;;;5097660;28;20575;-72
2023/03/11 02:00:44;;;;;;;;;;;21.20;30.50;;;;;;5098005;28;20054;-72
2023/03/11 02:03:13;;;;;;;;;;;21.20;30.50;;;;;;5097900;28;20385;-72
2023/03/11 02:05:39;;;;;;;;;;;21.20;30.50;;;;;;5131547;27;20341;-72
2023/03/11 02:08:05;;;;;;;;;;;21.10;30.40;;;;;;5115675;28;19920;-75
2023/03/11 02:10:30;;;;;;;;;;;21.20;30.50;;;;;;5097465;28;20291;-72
2023/03/11 02:12:56;;;;;;;;;;;21.20;30.50;;;;;;5115667;28;19951;-72
2023/03/11 02:15:23;;;;;;;;;;;21.20;30.40;;;;;;5115734;28;19924;-75
2023/03/11 02:17:48;;;;;;;;;;;21.20;30.40;;;;;;5097602;28;19923;-72
2023/03/11 02:22:56;;;;;;;;;;;21.20;30.50;;;;;;5089821;28;19919;-73
2023/03/11 02:25:29;;;;;;;;;;;21.20;30.40;;;;;;5089181;28;20073;-73
2023/03/11 02:27:55;;;;;;;;;;;21.30;30.50;;;;;;5088665;28;20306;-71
2023/03/11 02:30:22;;;;;;;;;;;21.30;30.40;;;;;;5088500;28;20402;-72
2023/03/11 02:32:48;;;;;;;;;;;21.30;30.40;;;;;;5088751;28;19964;-72
2023/03/11 02:35:14;;;;;;;;;;;21.20;30.30;;;;;;5122628;28;20371;-72
2023/03/11 02:37:43;;;;;;;;;;;21.30;30.40;;;;;;5088275;28;19921;-72
2023/03/11 02:43:06;;;;;;;;;;;21.30;30.40;;;;;;5110282;27;19934;-72
2023/03/11 02:45:32;;;;;;;;;;;21.30;30.30;;;;;;5108830;28;19924;-72
2023/03/11 02:47:58;;;;;;;;;;;21.20;30.30;;;;;;5108773;28;20002;-72
2023/03/11 02:50:25;;;;;;;;;;;21.20;30.40;;;;;;5108964;28;20298;-72
2023/03/11 02:52:51;;;;;;;;;;;21.20;30.50;;;;;;5109189;28;19920;-72
2023/03/11 02:55:19;;;;;;;;;;;21.20;30.40;;;;;;5108611;28;20397;-72
2023/03/11 02:57:45;;;;;;;;;;;21.10;30.40;;;;;;5109005;28;19990;-72
2023/03/11 03:00:14;;;;;;;;;;;21.10;30.50;;;;;;5109010;28;19985;-72
2023/03/11 03:02:39;;;;;;;;;;;21.10;30.40;;;;;;5108825;28;19920;-73
2023/03/11 03:05:05;;;;;;;;;;;21.20;30.50;;;;;;5108840;28;19943;-72
2023/03/11 03:07:31;;;;;;;;;;;21.20;30.50;;;;;;5108644;28;20371;-74
2023/03/11 03:09:56;;;;;;;;;;;21.20;30.40;;;;;;5108701;28;19927;-72
2023/03/11 03:12:22;;;;;;;;;;;21.20;30.50;;;;;;5108508;28;19924;-72
2023/03/11 03:14:48;;;;;;;;;;;21.20;30.30;;;;;;5109682;28;19965;-72
2023/03/11 03:17:13;;;;;;;;;;;21.20;30.30;;;;;;5109630;28;19927;-73
2023/03/11 03:19:39;;;;;;;;;;;21.20;30.40;;;;;;5108161;28;19920;-73
2023/03/11 03:22:04;;;;;;;;;;;21.20;30.40;;;;;;5108290;28;19978;-72
2023/03/11 03:24:30;;;;;;;;;;;21.20;30.30;;;;;;5108191;28;19969;-72
2023/03/11 03:26:55;;;;;;;;;;;21.30;30.20;;;;;;5108208;28;19924;-72
2023/03/11 03:29:21;;;;;;;;;;;21.30;30.20;;;;;;5109314;28;20011;-72
2023/03/11 03:31:46;;;;;;;;;;;21.40;30.20;;;;;;5108060;28;19974;-72
2023/03/11 03:34:12;;;;;;;;;;;21.40;30.10;;;;;;5109345;28;19924;-74
2023/03/11 03:36:38;;;;;;;;;;;21.40;30.10;;;;;;5108213;28;19926;-72
2023/03/11 03:39:04;;;;;;;;;;;21.40;30.00;;;;;;5109301;28;20006;-71
2023/03/11 03:41:29;;;;;;;;;;;21.40;30.10;;;;;;5103166;28;19924;-72
2023/03/11 03:43:55;;;;;;;;;;;21.40;30.10;;;;;;5142741;27;20078;-72
2023/03/11 03:46:21;;;;;;;;;;;21.40;30.10;;;;;;5109081;28;20341;-72
2023/03/11 03:48:46;;;;;;;;;;;21.30;30.00;;;;;;5107792;28;19924;-72
2023/03/11 03:51:12;;;;;;;;;;;21.40;30.10;;;;;;5108874;28;19923;-72
2023/03/11 03:53:41;;;;;;;;;;;21.30;30.10;;;;;;5098286;28;19926;-71
2023/03/11 03:56:08;;;;;;;;;;;21.30;30.80;;;;;;5128445;27;19965;-72
2023/03/11 03:58:34;;;;;;;;;;;21.30;30.00;;;;;;5094506;28;19920;-73
2023/03/11 04:01:00;;;;;;;;;;;21.30;30.10;;;;;;5094084;28;20395;-72
2023/03/11 04:03:26;;;;;;;;;;;21.30;30.10;;;;;;5094210;28;20271;-72
2023/03/11 04:05:52;;;;;;;;;;;21.30;30.10;;;;;;5076856;28;19920;-72
2023/03/11 04:08:17;;;;;;;;;;;21.30;30.00;;;;;;5093783;28;19927;-72
2023/03/11 04:10:43;;;;;;;;;;;21.30;30.00;;;;;;5095044;28;20023;-72
2023/03/11 04:13:08;;;;;;;;;;;21.20;30.00;;;;;;5094044;28;19920;-72
2023/03/11 04:15:36;;;;;;;;;;;21.30;30.10;;;;;;5093743;28;19942;-71
2023/03/11 04:18:01;;;;;;;;;;;21.20;30.80;;;;;;5093859;28;19920;-72
2023/03/11 04:20:27;;;;;;;;;;;21.20;30.10;;;;;;5093809;28;20276;-72
2023/03/11 04:22:52;;;;;;;;;;;21.20;30.00;;;;;;5094684;28;20429;-72
2023/03/11 04:25:18;;;;;;;;;;;21.20;30.00;;;;;;5093467;28;19920;-72
2023/03/11 04:27:44;;;;;;;;;;;21.20;30.00;;;;;;5095061;28;19924;-72
2023/03/11 04:30:11;;;;;;;;;;;21.20;30.10;;;;;;5094676;28;20007;-74
2023/03/11 04:32:36;;;;;;;;;;;21.20;30.10;;;;;;5094686;28;20291;-74
2023/03/11 04:35:02;;;;;;;;;;;21.20;30.00;;;;;;5093567;28;19982;-72
2023/03/11 04:37:28;;;;;;;;;;;21.20;30.00;;;;;;5093476;28;19935;-73
2023/03/11 04:39:53;;;;;;;;;;;21.20;30.00;;;;;;5094477;28;19928;-73
2023/03/11 04:42:19;;;;;;;;;;;21.20;30.00;;;;;;5092848;28;19924;-72
2023/03/11 04:44:44;;;;;;;;;;;21.20;30.10;;;;;;5093027;28;20383;-72
2023/03/11 04:47:10;;;;;;;;;;;21.20;30.00;;;;;;5093276;28;19927;-73
2023/03/11 04:49:36;;;;;;;;;;;21.20;30.00;;;;;;5094239;28;20290;-73
2023/03/11 04:52:04;;;;;;;;;;;21.20;30.00;;;;;;5093034;28;19920;-72
2023/03/11 04:54:30;;;;;;;;;;;21.20;30.00;;;;;;5092897;28;19928;-71
2023/03/11 04:56:55;;;;;;;;;;;21.20;30.00;;;;;;5092829;28;19930;-72
2023/03/11 04:59:21;;;;;;;;;;;21.20;30.00;;;;;;5092813;28;19920;-73
2023/03/11 05:01:46;;;;;;;;;;;21.20;30.00;;;;;;5126964;27;19924;-73
2023/03/11 05:04:12;;;;;;;;;;;21.30;30.00;;;;;;5126082;27;19920;-73
2023/03/11 05:06:37;;;;;;;;;;;21.20;30.00;;;;;;5092273;28;19927;-73
2023/03/11 05:09:03;;;;;;;;;;;21.20;30.00;;;;;;5126896;27;19924;-72
2023/03/11 05:11:29;;;;;;;;;;;21.20;30.00;;;;;;5092602;28;20003;-74
2023/03/11 05:13:54;;;;;;;;;;;21.20;30.10;;;;;;5093748;28;20009;-73
2023/03/11 05:16:20;;;;;;;;;;;21.20;30.00;;;;;;5092423;28;19920;-73
2023/03/11 05:18:46;;;;;;;;;;;21.10;30.00;;;;;;5092295;28;19931;-73
2023/03/11 05:21:11;;;;;;;;;;;21.10;30.00;;;;;;5092301;28;20049;-73
2023/03/11 05:23:37;;;;;;;;;;;21.20;30.00;;;;;;5092497;28;20022;-74
2023/03/11 05:26:03;;;;;;;;;;;21.20;30.00;;;;;;5092582;28;20367;-72
2023/03/11 05:28:28;;;;;;;;;;;21.10;30.00;;;;;;5092312;28;20286;-72
2023/03/11 05:30:54;;;;;;;;;;;21.20;30.00;;;;;;5092163;28;19927;-72
2023/03/11 05:33:19;;;;;;;;;;;21.20;30.00;;;;;;5092083;28;20007;-74
2023/03/11 05:35:45;;;;;;;;;;;21.20;30.00;;;;;;5092341;28;19920;-73
2023/03/11 05:38:11;;;;;;;;;;;21.20;30.00;;;;;;5093294;28;19973;-73
2023/03/11 05:40:36;;;;;;;;;;;21.30;30.00;;;;;;5126232;27;20339;-73
2023/03/11 05:43:02;;;;;;;;;;;21.30;29.90;;;;;;5125827;27;20280;-72
2023/03/11 05:45:28;;;;;;;;;;;21.30;29.90;;;;;;5091833;28;20074;-73
2023/03/11 05:47:54;;;;;;;;;;;21.40;29.90;;;;;;5091914;28;19920;-73
2023/03/11 05:50:19;;;;;;;;;;;21.50;29.80;;;;;;5092143;28;19927;-74
2023/03/11 05:52:45;;;;;;;;;;;21.40;30.40;;;;;;5092036;28;20321;-73
2023/03/11 05:55:11;;;;;;;;;;;21.40;29.80;;;;;;5126128;27;20268;-73
2023/03/11 05:57:37;;;;;;;;;;;21.40;29.70;;;;;;5092065;28;20283;-73
2023/03/11 06:00:06;;;;;;;;;;;21.40;29.80;;;;;;5091737;28;19920;-74
2023/03/11 06:02:31;;;;;;;;;;;21.40;29.70;;;;;;5091694;28;20284;-74
2023/03/11 06:04:57;;;;;;;;;;;21.50;29.80;;;;;;5092824;28;19941;-72
2023/03/11 06:07:22;;;;;;;;;;;21.40;29.80;;;;;;5092923;28;20284;-73
2023/03/11 06:09:48;;;;;;;;;;;21.30;29.80;;;;;;5091479;28;20371;-72
2023/03/11 06:12:14;;;;;;;;;;;21.30;29.70;;;;;;5091872;28;19919;-72
2023/03/11 06:14:39;;;;;;;;;;;21.30;29.80;;;;;;5092785;28;20435;-72
2023/03/11 06:17:05;;;;;;;;;;;21.30;29.80;;;;;;5091194;28;19924;-73
2023/03/11 06:19:31;;;;;;;;;;;21.30;29.80;;;;;;5091823;28;19928;-72
2023/03/11 06:21:56;;;;;;;;;;;21.30;29.80;;;;;;5091229;28;20291;-72
2023/03/11 06:24:22;;;;;;;;;;;21.30;29.80;;;;;;5091521;28;19946;-72
2023/03/11 06:26:50;;;;;;;;;;;21.30;29.80;;;;;;5091554;28;20332;-73
2023/03/11 06:29:15;;;;;;;;;;;21.30;29.80;;;;;;5091250;28;19946;-72
2023/03/11 06:31:41;;;;;;;;;;;21.20;29.80;;;;;;5091427;28;19920;-72
2023/03/11 06:34:07;;;;;;;;;;;21.30;29.90;;;;;;5092679;28;20445;-73
2023/03/11 06:36:33;;;;;;;;;;;21.20;29.80;;;;;;5092497;28;19920;-72
2023/03/11 06:38:58;;;;;;;;;;;21.20;29.80;;;;;;5092508;28;20348;-76
2023/03/11 06:41:24;;;;;;;;;;;21.20;29.80;;;;;;5093336;28;20352;-72
2023/03/11 06:43:50;;;;;;;;;;;21.20;29.80;;;;;;5094559;28;19928;-73
2023/03/11 06:46:16;;;;;;;;;;;21.20;29.80;;;;;;5094353;28;19924;-73
2023/03/11 06:48:43;;;;;;;;;;;21.30;29.80;;;;;;5094541;28;19919;-72
2023/03/11 06:51:08;;;;;;;;;;;21.20;29.80;;;;;;5094733;28;19920;-72
2023/03/11 06:53:34;;;;;;;;;;;21.20;29.70;;;;;;5094428;28;20420;-72
2023/03/11 06:56:02;;;;;;;;;;;21.20;29.80;;;;;;5094214;28;19924;-72
2023/03/11 06:58:28;;;;;;;;;;;21.20;29.80;;;;;;5128753;28;19965;-72
2023/03/11 07:00:54;;;;;;;;;;;21.20;29.80;;;;;;5093156;28;19928;-71
2023/03/11 07:03:19;;;;;;;;;;;21.20;29.80;;;;;;5093679;28;19961;-74
2023/03/11 07:05:45;;;;;;;;;;;21.20;30.00;;;;;;5091642;28;19966;-68
2023/03/11 07:08:10;;;;;;;;;;;21.20;30.50;;;;;;5111567;28;19965;-72
2023/03/11 07:10:36;;;;;;;;;;;21.10;30.70;;;;;;5092874;28;19927;-73
2023/03/11 07:13:01;;;;;;;;;;;21.00;31.10;;;;;;5111151;28;19920;-73
2023/03/11 07:15:27;;;;;;;;;;;20.90;31.30;;;;;;5111655;28;19926;-72
2023/03/11 07:17:53;;;;;;;;;;;20.80;32.20;;;;;;5093510;28;19959;-71
2023/03/11 07:20:18;;;;;;;;;;;20.80;32.10;;;;;;5093487;28;20019;-72
2023/03/11 07:22:44;;;;;;;;;;;20.90;32.20;;;;;;5092859;28;19971;-70
2023/03/11 07:25:09;;;;;;;;;;;21.00;32.90;;;;;;5111768;28;19966;-72
2023/03/11 07:27:35;;;;;;;;;;;21.10;32.10;;;;;;5111311;28;20389;-69
2023/03/11 07:30:01;;;;;;;;;;;21.10;32.70;;;;;;5115497;28;19927;-73
2023/03/11 07:32:26;;;;;;;;;;;21.30;32.10;;;;;;5115945;28;19920;-73
2023/03/11 07:34:52;;;;;;;;;;;21.40;31.90;;;;;;5098297;28;19929;-72
2023/03/11 07:37:17;;;;;;;;;;;21.50;31.80;;;;;;5115155;28;20018;-73
2023/03/11 07:39:43;;;;;;;;;;;21.60;31.70;;;;;;5097430;28;19927;-74
2023/03/11 07:42:08;;;;;;;;;;;21.60;31.50;;;;;;5114979;28;19941;-71
2023/03/11 07:44:34;;;;;;;;;;;21.70;31.60;;;;;;5097110;28;19920;-75
2023/03/11 07:47:02;;;;;;;;;;;21.80;31.40;;;;;;5096411;28;19935;-76
2023/03/11 07:49:27;;;;;;;;;;;21.80;31.40;;;;;;5097397;28;19919;-73
2023/03/11 07:51:53;;;;;;;;;;;21.80;31.20;;;;;;5094861;28;19978;-72
2023/03/11 07:54:21;;;;;;;;;;;21.90;31.30;;;;;;5097102;28;20309;-75
2023/03/11 07:56:47;;;;;;;;;;;21.90;31.30;;;;;;5112936;28;19968;-74
2023/03/11 07:59:15;;;;;;;;;;;22.00;31.30;;;;;;5114530;28;19920;-75
2023/03/11 08:01:45;;;;;;;;;;;22.00;31.20;;;;;;5097083;28;19930;-73
2023/03/11 08:04:13;;;;;;;;;;;22.00;31.20;;;;;;5115649;28;19975;-76
2023/03/11 08:06:40;;;;;;;;;;;22.00;31.20;;;;;;5131409;27;19926;-75
2023/03/11 08:09:07;;;;;;;;;;;22.00;31.20;;;;;;5115345;28;19923;-75
2023/03/11 08:11:33;;;;;;;;;;;22.00;31.20;;;;;;5114956;28;20383;-74
2023/03/11 08:13:58;;;;;;;;;;;22.00;31.30;;;;;;5096816;28;19927;-74
2023/03/11 08:16:24;;;;;;;;;;;22.00;31.30;;;;;;5115448;28;20353;-74
2023/03/11 08:18:53;;;;;;;;;;;21.90;31.50;;;;;;5113858;28;19966;-68
2023/03/11 08:21:21;;;;;;;;;;;21.80;31.60;;;;;;5096863;28;20449;-73
2023/03/11 08:23:46;;;;;;;;;;;21.70;31.80;;;;;;5097294;28;20375;-71
2023/03/11 08:26:13;;;;;;;;;;;21.60;32.60;;;;;;5115051;28;19920;-71
2023/03/11 08:28:39;;;;;;;;;;;21.50;32.10;;;;;;5095508;28;19920;-68
2023/03/11 08:31:12;;;;;;;;;;;21.40;32.00;;;;;;5114812;28;20020;-69
2023/03/11 08:33:37;;;;;;;;;;;21.40;32.40;;;;;;5096675;28;19920;-69
2023/03/11 08:36:09;;;;;;;;;;;21.50;32.60;;;;;;5114865;28;20003;-79
2023/03/11 08:38:34;;;;;;;;;;;21.30;32.30;;;;;;5096483;28;19920;-79
2023/03/11 08:41:00;;;;;;;;;;;21.40;32.40;;;;;;5114576;28;20022;-79
2023/03/11 08:43:29;;;;;;;;;;;21.40;32.60;;;;;;5096523;28;19927;-76
2023/03/11 08:45:54;;;;;;;;;;;21.30;32.60;;;;;;5096322;28;19927;-71
2023/03/11 08:48:20;;;;;;;;;;;21.30;32.60;;;;;;5096645;28;19920;-71
2023/03/11 08:50:46;;;;;;;;;;;21.20;31.70;;;;;;5096105;28;20069;-77
2023/03/11 08:53:11;;;;;;;;;;;21.20;31.30;;;;;;5095979;28;19924;-72
2023/03/11 08:55:37;;;;;;;;;;;21.30;31.80;;;;;;5095825;28;19920;-72
2023/03/11 08:58:02;;;;;;;;;;;21.20;31.60;;;;;;5130740;27;20006;-70
2023/03/11 09:00:28;;;;;;;;;;;21.20;32.00;;;;;;5130288;27;20073;-72
2023/03/11 09:02:53;;;;;;;;;;;21.20;32.20;;;;;;5094530;28;19931;-71
2023/03/11 09:05:19;;;;;;;;;;;21.20;32.40;;;;;;5095882;28;19926;-68
2023/03/11 09:07:45;;;;;;;;;;;21.20;32.80;;;;;;5096292;28;19974;-68
2023/03/11 09:10:12;;;;;;;;;;;21.30;32.90;;;;;;5096069;28;19919;-68
2023/03/11 09:12:38;;;;;;;;;;;21.40;32.90;;;;;;5095622;28;19923;-73
2023/03/11 09:15:04;;;;;;;;;;;21.60;32.80;;;;;;5096107;28;19926;-72
2023/03/11 09:17:30;;;;;;;;;;;21.70;32.80;;;;;;5096022;28;20278;-71
2023/03/11 09:19:55;;;;;;;;;;;21.90;32.60;;;;;;5095905;28;19924;-71
2023/03/11 09:22:21;;;;;;;;;;;22.20;32.40;;;;;;5114038;28;20002;-76
2023/03/11 09:24:46;;;;;;;;;;;22.30;31.40;;;;;;5096128;28;19970;-77
2023/03/11 09:27:14;;;;;;;;;;;22.40;32.20;;;;;;5095365;28;20336;-75
2023/03/11 09:29:39;;;;;;;;;;;22.40;31.10;;;;;;5095009;28;20308;-78
2023/03/11 09:32:05;;;;;;;;;;;22.30;31.20;;;;;;5095138;28;19924;-78
2023/03/11 09:34:34;;;;;;;;;;;22.00;31.40;;;;;;5095651;28;20033;-80
2023/03/11 09:37:00;;;;;;;;;;;21.70;31.70;;;;;;5095476;28;19928;-78
2023/03/11 09:39:25;;;;;;;;;;;21.40;31.90;;;;;;5095495;28;19971;-78
2023/03/11 09:41:53;;;;;;;;;;;21.30;32.20;;;;;;5094813;28;20401;-72
2023/03/11 09:44:22;;;;;;;;;;;21.10;32.50;;;;;;5095072;28;20324;-75
2023/03/11 09:47:09;;;;;;;;;;;21.20;32.70;;;;;;5095255;28;19931;-71
2023/03/11 09:52:22;;;;;;;;;;;20.90;32.90;;;;;;5089393;28;19913;-67
2023/03/11 09:54:50;;;;;;;;;;;20.80;33.20;;;;;;5088072;28;19928;-69
2023/03/11 09:57:18;;;;;;;;;;;20.80;33.10;;;;;;5088529;28;19920;-70
2023/03/11 09:59:44;;;;;;;;;;;20.80;33.00;;;;;;5088371;28;19989;-74
2023/03/11 10:02:13;;;;;;;;;;;20.80;33.30;;;;;;5088629;28;19920;-72
2023/03/11 10:04:42;;;;;;;;;;;20.90;33.30;;;;;;5105218;28;19931;-70
2023/03/11 10:07:11;;;;;;;;;;;21.00;33.20;;;;;;5088896;28;19975;-72
2023/03/11 10:09:39;;;;;;;;;;;21.00;33.20;;;;;;5088308;28;19920;-72
2023/03/11 10:15:08;;;;;;;;;;;21.10;33.10;;;;;;5127533;27;1865579;-74
2023/03/11 10:17:53;;;;;;;;;;;21.20;33.00;;;;;;5174282;27;19963;-75
2023/03/11 10:20:29;;;;;;;;;;;21.20;32.80;;;;;;5173774;27;19923;-77
2023/03/11 10:23:15;;;;;;;;;;;21.20;32.70;;;;;;5173848;27;19925;-78
2023/03/11 10:26:00;;;;;;;;;;;21.30;32.70;;;;;;5192290;27;20330;-72
2023/03/11 10:28:29;;;;;;;;;;;21.20;32.70;;;;;;5174092;27;20018;-74
2023/03/11 10:30:56;;;;;;;;;;;21.20;32.90;;;;;;5192520;27;20300;-72
2023/03/11 10:33:25;;;;;;;;;;;21.20;33.00;;;;;;5173382;27;19952;-77
2023/03/11 10:35:54;;;;;;;;;;;21.30;33.10;;;;;;5173681;27;19925;-73
2023/03/11 10:38:21;;;;;;;;;;;21.30;33.10;;;;;;5173467;27;19919;-73
2023/03/11 10:40:48;;;;;;;;;;;21.30;33.20;;;;;;5173563;27;19926;-73
2023/03/11 10:43:18;;;;;;;;;;;21.30;33.20;;;;;;5173618;27;19925;-75
2023/03/11 10:45:47;;;;;;;;;;;21.30;33.20;;;;;;5173455;27;20024;-75
2023/03/11 10:48:17;;;;;;;;;;;21.40;33.30;;;;;;5173716;27;19941;-72
2023/03/11 10:51:02;;;;;;;;;;;21.40;33.20;;;;;;5169644;27;19918;-73
2023/03/11 10:53:29;;;;;;;;;;;21.40;33.20;;;;;;5166200;27;19923;-71
2023/03/11 10:55:56;;;;;;;;;;;21.50;33.10;;;;;;5176776;27;19919;-71
2023/03/11 10:58:23;;;;;;;;;;;21.50;33.10;;;;;;5170842;27;19923;-72
2023/03/11 11:01:09;;;;;;;;;;;21.50;33.10;;;;;;5170770;27;19919;-71
2023/03/11 11:03:35;;;;;;;;;;;21.60;33.10;;;;;;5152009;27;19933;-69
2023/03/11 11:06:03;;;;;;;;;;;21.50;33.10;;;;;;5155659;27;20352;-78
2023/03/11 11:08:29;;;;;;;;;;;21.50;33.00;;;;;;5152280;27;19964;-70
2023/03/11 11:10:56;;;;;;;;;;;21.60;33.10;;;;;;5173926;27;19973;-69
2023/03/11 11:13:23;;;;;;;;;;;21.50;32.90;;;;;;5154821;27;20047;-71
2023/03/11 11:15:51;;;;;;;;;;;21.60;33.00;;;;;;5153954;27;19919;-71
2023/03/11 11:18:18;;;;;;;;;;;21.60;33.10;;;;;;5173483;27;19958;-69
2023/03/11 11:21:03;;;;;;;;;;;21.60;33.00;;;;;;5173153;27;20392;-69
2023/03/11 11:26:17;;;;;;;;;;;21.80;32.90;;;;;;5110262;27;19912;-70
2023/03/11 11:28:43;;;;;;;;;;;21.90;32.90;;;;;;5112229;28;19959;-71
2023/03/11 11:31:25;;;;;;;;;;;21.90;32.80;;;;;;5112362;28;19920;-74
2023/03/11 11:33:52;;;;;;;;;;;21.90;32.80;;;;;;5108792;28;20386;-76
2023/03/11 11:36:19;;;;;;;;;;;21.80;32.70;;;;;;5128943;27;19924;-70
2023/03/11 11:38:44;;;;;;;;;;;21.80;32.70;;;;;;5097921;28;19970;-71
2023/03/11 11:41:13;;;;;;;;;;;21.60;32.80;;;;;;5108443;28;19964;-71
2023/03/11 11:43:55;;;;;;;;;;;21.50;33.10;;;;;;5106868;28;20018;-70
2023/03/11 11:46:28;;;;;;;;;;;21.40;33.40;;;;;;5107855;28;20287;-73
2023/03/11 11:48:58;;;;;;;;;;;21.20;33.40;;;;;;5108441;28;19920;-75
2023/03/11 11:51:28;;;;;;;;;;;21.10;33.40;;;;;;5108273;28;19924;-71
2023/03/11 11:53:58;;;;;;;;;;;21.00;33.50;;;;;;5108589;28;19920;-73
2023/03/11 11:56:25;;;;;;;;;;;21.00;33.80;;;;;;5108073;28;20291;-72
2023/03/11 11:58:53;;;;;;;;;;;20.90;34.00;;;;;;5108375;28;19927;-71
2023/03/11 12:01:22;;;;;;;;;;;20.80;34.00;;;;;;5108281;28;20032;-71
2023/03/11 12:06:51;;;;;;;;;;;20.90;34.10;;;;;;5089627;28;20327;-74
2023/03/11 12:09:37;;;;;;;;;;;21.10;34.30;;;;;;5088143;28;19973;-77
2023/03/11 12:12:23;;;;;;;;;;;21.10;34.10;;;;;;5088158;28;19998;-71
2023/03/11 12:17:31;;;;;;;;;;;21.50;33.70;;;;;;5127544;27;20108;-78
2023/03/11 12:20:02;;;;;;;;;;;21.70;33.20;;;;;;5103535;28;20449;-71
2023/03/11 12:28:02;;;;;;;;;;;21.80;33.20;;;;;;5110116;27;20310;-71
2023/03/11 12:30:30;;;;;;;;;;;22.00;33.20;;;;;;5109245;28;19959;-75
2023/03/11 12:32:59;;;;;;;;;;;22.10;32.90;;;;;;5109955;28;19920;-77
2023/03/11 12:35:27;;;;;;;;;;;22.20;32.90;;;;;;5107973;28;20363;-69
2023/03/11 12:38:12;;;;;;;;;;;22.10;32.50;;;;;;5108746;28;20375;-70
2023/03/11 12:46:07;;;;;;;;;;;21.60;32.60;;;;;;5088723;28;20419;-76
2023/03/11 12:54:27;;;;;;;;;;;21.30;32.90;;;;;;5109864;27;19915;-72
2023/03/11 12:56:54;;;;;;;;;;;21.30;32.90;;;;;;5089161;28;19932;-73
2023/03/11 12:59:39;;;;;;;;;;;21.30;33.10;;;;;;5093606;28;20375;-74
2023/03/11 13:05:08;;;;;;;;;;;21.40;33.00;;;;;;5089796;28;20376;-73
2023/03/11 13:07:36;;;;;;;;;;;21.40;32.80;;;;;;5088766;28;20327;-72
2023/03/11 13:10:21;;;;;;;;;;;21.50;32.70;;;;;;5088760;28;19921;-73
2023/03/11 13:12:48;;;;;;;;;;;21.50;32.50;;;;;;5088365;28;20012;-73
2023/03/11 13:18:12;;;;;;;;;;;21.50;32.30;;;;;;5172259;27;20030;-73
2023/03/11 13:26:11;;;;;;;;;;;21.60;32.10;;;;;;5090384;28;19913;-72
2023/03/11 13:31:51;;;;;;;;;;;21.70;32.10;;;;;;5124437;27;1935442;-72
2023/03/11 13:37:15;;;;;;;;;;;21.70;31.90;;;;;;5109079;27;19922;-73
2023/03/11 13:42:28;;;;;;;;;;;21.60;31.70;;;;;;5110373;27;20379;-73
2023/03/11 13:44:55;;;;;;;;;;;21.60;31.70;;;;;;5108911;28;19934;-73
2023/03/11 13:47:22;;;;;;;;;;;21.60;31.70;;;;;;5109192;28;20014;-74
2023/03/11 13:49:53;;;;;;;;;;;21.60;31.70;;;;;;5108811;28;20391;-73
2023/03/11 13:52:28;;;;;;;;;;;21.60;31.60;;;;;;5109149;28;20367;-74
2023/03/11 13:54:58;;;;;;;;;;;21.60;31.60;;;;;;5108988;28;20015;-73
2023/03/11 14:00:23;;;;;;;;;;;21.50;31.50;;;;;;5130647;27;19912;-74
2023/03/11 14:02:53;;;;;;;;;;;21.60;31.60;;;;;;5129424;28;19962;-73
2023/03/11 14:05:21;;;;;;;;;;;21.50;31.50;;;;;;5129361;28;19973;-73
2023/03/11 14:07:47;;;;;;;;;;;21.50;31.50;;;;;;5129639;28;19920;-73
2023/03/11 14:10:15;;;;;;;;;;;21.50;31.50;;;;;;5129320;28;20375;-75
2023/03/11 14:12:41;;;;;;;;;;;21.50;31.40;;;;;;5129515;28;19920;-74
2023/03/11 14:15:07;;;;;;;;;;;21.50;31.50;;;;;;5129626;28;19919;-74
2023/03/11 14:17:33;;;;;;;;;;;21.50;31.40;;;;;;5129058;28;20014;-75
2023/03/11 14:22:48;;;;;;;;;;;21.50;31.40;;;;;;5110155;27;20286;-79
2023/03/11 14:25:16;;;;;;;;;;;21.40;31.40;;;;;;5107422;28;20158;-76
2023/03/11 14:27:45;;;;;;;;;;;21.40;32.00;;;;;;5107514;28;19920;-83
2023/03/11 14:30:17;;;;;;;;;;;21.30;31.60;;;;;;5107648;28;19920;-73
2023/03/11 14:32:42;;;;;;;;;;;21.20;32.00;;;;;;5107664;28;20382;-71
2023/03/11 14:35:17;;;;;;;;;;;21.20;32.20;;;;;;5109533;28;19920;-71
2023/03/11 14:37:43;;;;;;;;;;;21.20;32.20;;;;;;5107989;28;19920;-73
2023/03/11 14:40:25;;;;;;;;;;;21.30;32.20;;;;;;5108394;28;20027;-72
2023/03/11 14:42:52;;;;;;;;;;;21.40;32.20;;;;;;5108082;28;20395;-73
2023/03/11 14:45:22;;;;;;;;;;;21.40;32.10;;;;;;5108467;28;19920;-72
2023/03/11 14:48:08;;;;;;;;;;;21.50;32.00;;;;;;5141603;27;19920;-72
2023/03/11 14:50:34;;;;;;;;;;;21.60;31.90;;;;;;5108404;28;19966;-72
2023/03/11 15:04:00;;;;;;;;;;;21.90;31.30;;;;;;5110329;27;20121;-71
2023/03/11 15:06:28;;;;;;;;;;;21.90;31.30;;;;;;5109264;28;19955;-72
2023/03/11 15:11:49;;;;;;;;;;;21.80;31.30;;;;;;5172515;27;19915;-72
2023/03/11 15:14:23;;;;;;;;;;;21.70;31.50;;;;;;5153900;27;19926;-72
2023/03/11 15:16:49;;;;;;;;;;;21.60;31.50;;;;;;5153926;27;19918;-72
2023/03/11 15:19:33;;;;;;;;;;;21.60;31.50;;;;;;5153394;27;19919;-73
2023/03/11 15:22:04;;;;;;;;;;;21.50;31.50;;;;;;5153704;27;20378;-72
2023/03/11 15:24:31;;;;;;;;;;;21.40;31.60;;;;;;5153274;27;19919;-72
2023/03/11 15:29:38;;;;;;;;;;;21.40;31.70;;;;;;5110271;27;20264;-72
2023/03/11 15:32:24;;;;;;;;;;;21.40;31.70;;;;;;5109085;28;19920;-72
2023/03/11 15:35:13;;;;;;;;;;;21.30;31.60;;;;;;5108684;28;20375;-72
2023/03/11 15:37:39;;;;;;;;;;;21.40;31.60;;;;;;5110075;28;19927;-72